createdAt,value
2023-05-19T00:09:01.864Z,100242.50
2023-05-19T00:24:04.489Z,100236.22
2023-05-19T00:39:06.500Z,100248.38
2023-05-19T00:54:09.255Z,100249.53
2023-05-19T01:09:12.273Z,100233.75
2023-05-19T01:24:55.614Z,100245.53
2023-05-19T01:39:58.277Z,100248.97
2023-05-19T01:55:00.463Z,100263.56
2023-05-19T02:10:24.061Z,100281.59
2023-05-19T02:25:25.994Z,100277.41
2023-05-19T02:40:28.116Z,100285.94
2023-05-19T02:55:29.999Z,100300.97
2023-05-19T03:10:32.165Z,100308.47
2023-05-19T03:25:34.205Z,100305.41
2023-05-19T03:40:36.279Z,100298.00
2023-05-19T03:55:38.247Z,100302.97
2023-05-19T04:10:40.179Z,100315.66
2023-05-19T04:25:42.369Z,100314.88
2023-05-19T04:40:44.726Z,100317.72
2023-05-19T04:55:47.841Z,100331.13
2023-05-19T05:10:53.182Z,100334.44
2023-05-19T05:25:55.644Z,100340.06
2023-05-19T05:40:57.751Z,100341.34
2023-05-19T05:56:00.033Z,100337.78
2023-05-19T06:11:02.059Z,100347.19
2023-05-19T06:26:04.060Z,100350.25
2023-05-19T06:41:06.195Z,100351.53
2023-05-19T06:56:08.246Z,100350.16
2023-05-19T07:11:10.316Z,100353.31
2023-05-19T07:26:12.319Z,100347.81
2023-05-19T07:41:14.573Z,100344.47
2023-05-19T07:56:16.632Z,100336.34
2023-05-19T08:11:18.708Z,100335.13
2023-05-19T08:26:21.702Z,100330.94
2023-05-19T08:41:24.140Z,100338.16
2023-05-19T08:56:27.099Z,100335.28
2023-05-19T09:11:29.620Z,100335.63
2023-05-19T09:26:43.605Z,100323.22
2023-05-19T09:41:46.784Z,100312.28
2023-05-19T09:56:58.453Z,100297.63
2023-05-19T10:12:00.414Z,100295.34
2023-05-19T10:27:12.159Z,100281.66
2023-05-19T10:42:30.048Z,100265.03
2023-05-19T10:57:33.443Z,100270.13
2023-05-19T11:12:46.216Z,100267.72
2023-05-19T11:27:52.234Z,100259.56
2023-05-19T11:42:54.265Z,100270.47
2023-05-19T12:13:08.193Z,100283.78
2023-05-19T12:28:10.260Z,100269.31
2023-05-19T12:43:22.619Z,100251.06
2023-05-19T12:58:24.590Z,100258.94
2023-05-19T13:13:26.524Z,100279.84
2023-05-19T13:28:28.477Z,100271.28
2023-05-19T13:43:30.591Z,100263.44
2023-05-19T13:58:32.514Z,100260.41
2023-05-19T14:13:37.216Z,100271.63
2023-05-19T14:28:42.033Z,100281.09
2023-05-19T14:43:44.049Z,100284.84
2023-05-19T14:58:46.136Z,100284.47
2023-05-19T15:13:48.351Z,100308.19
2023-05-19T15:28:50.343Z,100319.50
2023-05-19T15:43:53.657Z,100324.16
2023-05-19T15:58:55.696Z,100345.84
2023-05-19T16:13:57.577Z,100354.69
2023-05-19T16:28:59.327Z,100360.16
2023-05-19T16:44:02.581Z,100369.78
2023-05-19T16:59:08.062Z,100380.16
2023-05-19T17:14:10.061Z,100389.28
2023-05-19T17:29:12.044Z,100387.38
2023-05-19T17:44:14.024Z,100395.28
2023-05-19T17:59:16.350Z,100402.75
2023-05-19T18:14:18.527Z,100422.25
2023-05-19T18:29:20.619Z,100412.69
2023-05-19T18:44:22.666Z,100420.50
2023-05-19T18:59:26.057Z,100417.72
2023-05-19T19:14:28.003Z,100433.75
2023-05-19T19:29:30.078Z,100436.66
2023-05-19T19:44:32.608Z,100437.47
2023-05-19T19:59:34.653Z,100446.16
2023-05-19T20:14:37.114Z,100446.59
2023-05-19T20:29:39.108Z,100453.78
2023-05-19T20:44:41.133Z,100455.81
2023-05-19T20:59:43.062Z,100459.81
2023-05-19T21:14:44.937Z,100455.19
2023-05-19T21:29:46.952Z,100460.78
2023-05-19T21:44:50.348Z,100470.41
2023-05-19T21:59:52.356Z,100475.44
2023-05-19T22:14:54.230Z,100481.41
2023-05-19T22:29:56.454Z,100476.06
2023-05-19T22:44:58.586Z,100474.84
2023-05-19T23:00:00.668Z,100466.19
2023-05-19T23:15:02.886Z,100473.69
2023-05-19T23:30:05.324Z,100466.66
2023-05-19T23:45:08.062Z,100466.25
